createdAt,value
2023-03-06T00:00:58.489Z,3.42
2023-03-06T00:03:27.971Z,3.25
2023-03-06T00:05:59.276Z,4.88
2023-03-06T00:08:29.031Z,5.13
2023-03-06T00:10:56.990Z,7.03
2023-03-06T00:13:26.586Z,5.43
2023-03-06T00:15:53.434Z,3.63
2023-03-06T00:18:20.224Z,3.85
2023-03-06T00:20:47.168Z,3.63
2023-03-06T00:23:15.093Z,4.00
2023-03-06T00:25:44.104Z,5.32
2023-03-06T00:28:12.337Z,4.60
2023-03-06T00:30:39.437Z,4.75
2023-03-06T00:33:06.348Z,4.75
2023-03-06T00:35:33.201Z,3.38
2023-03-06T00:38:00.205Z,4.90
2023-03-06T00:40:27.520Z,3.92
2023-03-06T00:42:54.458Z,4.22
2023-03-06T00:45:21.369Z,4.30
2023-03-06T00:47:48.141Z,3.42
2023-03-06T00:50:15.089Z,3.50
2023-03-06T00:52:42.132Z,4.03
2023-03-06T00:55:10.444Z,4.22
2023-03-06T00:57:37.372Z,4.13
2023-03-06T01:00:06.443Z,4.55
2023-03-06T01:02:33.344Z,4.97
2023-03-06T01:05:00.470Z,6.80
2023-03-06T01:07:27.831Z,5.03
2023-03-06T01:09:54.725Z,7.07
2023-03-06T01:12:23.501Z,4.82
2023-03-06T01:14:51.366Z,5.22
2023-03-06T01:17:18.321Z,5.72
2023-03-06T01:19:45.131Z,4.60
2023-03-06T01:22:13.938Z,6.13
2023-03-06T01:24:40.793Z,7.25
2023-03-06T01:27:07.572Z,7.25
2023-03-06T01:29:34.478Z,7.20
2023-03-06T01:32:01.443Z,7.68
2023-03-06T01:34:28.299Z,6.72
2023-03-06T01:36:55.235Z,5.93
2023-03-06T01:39:22.005Z,7.00
2023-03-06T01:41:48.920Z,7.35
2023-03-06T01:44:16.313Z,9.05
2023-03-06T01:46:45.083Z,8.55
2023-03-06T01:49:25.222Z,6.82
2023-03-06T01:52:03.468Z,9.90
2023-03-06T01:54:43.123Z,7.65
2023-03-06T01:57:17.321Z,9.10
2023-03-06T01:59:46.739Z,9.68
2023-03-06T02:02:15.355Z,10.88
2023-03-06T02:04:44.030Z,10.23
2023-03-06T02:07:11.773Z,9.02
2023-03-06T02:09:39.194Z,10.57
2023-03-06T02:12:14.418Z,11.18
2023-03-06T02:14:42.508Z,10.18
2023-03-06T02:17:14.099Z,9.63
2023-03-06T02:20:03.033Z,11.18
2023-03-06T02:22:57.951Z,12.02
2023-03-06T02:25:36.120Z,10.93
2023-03-06T02:28:07.756Z,13.75
2023-03-06T02:30:36.753Z,10.73
2023-03-06T02:33:04.973Z,11.95
2023-03-06T02:35:35.923Z,12.18
2023-03-06T02:38:15.856Z,12.23
2023-03-06T02:40:47.448Z,11.82
2023-03-06T02:43:21.130Z,12.68
2023-03-06T02:45:51.806Z,16.05
2023-03-06T02:48:20.798Z,12.50
2023-03-06T02:50:48.537Z,14.60
2023-03-06T02:53:18.460Z,10.27
2023-03-06T02:55:46.539Z,15.10
2023-03-06T02:58:15.518Z,9.68
2023-03-06T03:00:42.665Z,9.35
2023-03-06T03:03:10.176Z,10.45
2023-03-06T03:05:37.046Z,8.80
2023-03-06T03:08:11.666Z,8.35
2023-03-06T03:10:38.628Z,9.68
2023-03-06T03:13:06.236Z,9.60
2023-03-06T03:15:34.630Z,9.07
2023-03-06T03:18:01.495Z,9.30
2023-03-06T03:20:28.271Z,7.65
2023-03-06T03:22:56.463Z,9.40
2023-03-06T03:25:26.088Z,7.80
2023-03-06T03:27:55.625Z,7.07
2023-03-06T03:30:22.893Z,7.97
2023-03-06T03:32:50.465Z,8.27
2023-03-06T03:35:17.589Z,9.45
2023-03-06T03:37:44.634Z,8.43
2023-03-06T03:40:12.939Z,7.50
2023-03-06T03:42:39.803Z,8.00
2023-03-06T03:45:08.331Z,7.82
2023-03-06T03:47:35.226Z,8.15
2023-03-06T03:50:02.856Z,8.15
2023-03-06T03:52:29.955Z,6.90
2023-03-06T03:54:56.999Z,8.05
2023-03-06T03:57:24.733Z,10.65
2023-03-06T03:59:53.702Z,6.68
2023-03-06T04:02:40.584Z,7.05
2023-03-06T04:05:18.699Z,6.57
2023-03-06T04:07:46.763Z,7.07
2023-03-06T04:10:14.935Z,8.57
2023-03-06T04:12:42.316Z,5.63
2023-03-06T04:15:11.572Z,6.53
2023-03-06T04:17:39.280Z,6.15
2023-03-06T04:20:10.758Z,8.07
2023-03-06T04:22:38.156Z,7.88
2023-03-06T04:25:05.708Z,9.80
2023-03-06T04:27:32.708Z,9.57
2023-03-06T04:29:59.913Z,6.80
2023-03-06T04:32:27.057Z,7.97
2023-03-06T04:34:54.107Z,6.43
2023-03-06T04:37:25.312Z,6.80
2023-03-06T04:39:53.580Z,6.88
2023-03-06T04:42:20.722Z,6.93
2023-03-06T04:44:47.771Z,4.90
2023-03-06T04:47:14.832Z,5.10
2023-03-06T04:49:41.633Z,4.75
2023-03-06T04:52:08.817Z,4.68
2023-03-06T04:54:35.635Z,4.50
2023-03-06T04:57:02.466Z,4.10
2023-03-06T04:59:29.545Z,4.45
2023-03-06T05:01:56.561Z,6.15
2023-03-06T05:04:23.425Z,4.82
2023-03-06T05:06:50.260Z,6.57
2023-03-06T05:09:17.059Z,4.47
2023-03-06T05:11:43.878Z,3.80
2023-03-06T05:14:10.706Z,5.47
2023-03-06T05:16:37.610Z,6.10
2023-03-06T05:19:04.488Z,5.75
2023-03-06T05:21:31.316Z,4.57
2023-03-06T05:23:58.146Z,4.40
2023-03-06T05:26:25.120Z,6.53
2023-03-06T05:28:52.005Z,3.95
2023-03-06T05:31:18.832Z,6.75
2023-03-06T05:33:45.671Z,3.40
2023-03-06T05:36:12.522Z,2.75
2023-03-06T05:38:39.358Z,4.68
2023-03-06T05:41:06.166Z,4.13
2023-03-06T05:43:33.007Z,2.40
2023-03-06T05:46:05.786Z,2.90
2023-03-06T05:48:34.088Z,3.40
2023-03-06T05:51:02.240Z,3.72
2023-03-06T05:53:29.680Z,4.30
2023-03-06T05:56:03.804Z,3.67
2023-03-06T05:58:32.477Z,4.10
2023-03-06T06:00:59.910Z,3.08
2023-03-06T06:03:27.517Z,3.40
2023-03-06T06:05:54.345Z,5.10
2023-03-06T06:08:21.788Z,4.43
2023-03-06T06:10:50.444Z,2.72
2023-03-06T06:13:19.034Z,4.10
2023-03-06T06:15:45.880Z,5.03
2023-03-06T06:18:12.749Z,4.38
2023-03-06T06:20:39.629Z,5.03
2023-03-06T06:23:06.581Z,4.97
2023-03-06T06:25:33.881Z,5.22
2023-03-06T06:28:00.817Z,6.43
2023-03-06T06:30:27.634Z,3.95
2023-03-06T06:32:54.573Z,4.18
2023-03-06T06:35:21.648Z,2.80
2023-03-06T06:37:49.073Z,3.38
2023-03-06T06:40:16.050Z,5.20
2023-03-06T06:42:43.481Z,3.03
2023-03-06T06:45:11.291Z,3.92
2023-03-06T06:47:41.249Z,2.83
2023-03-06T06:50:13.028Z,2.13
2023-03-06T06:52:40.353Z,0.95
2023-03-06T06:55:08.737Z,2.22
2023-03-06T06:57:35.554Z,1.63
2023-03-06T07:00:03.104Z,2.63
2023-03-06T07:02:30.105Z,3.85
2023-03-06T07:05:04.325Z,2.65
2023-03-06T07:07:37.557Z,2.67
2023-03-06T07:10:12.022Z,1.42
2023-03-06T07:12:38.939Z,1.98
2023-03-06T07:15:07.981Z,2.22
2023-03-06T07:17:34.860Z,2.50
2023-03-06T07:20:01.884Z,3.10
2023-03-06T07:22:31.929Z,5.13
2023-03-06T07:25:05.382Z,2.13
2023-03-06T07:27:32.474Z,2.63
2023-03-06T07:29:59.429Z,3.80
2023-03-06T07:32:26.486Z,1.52
2023-03-06T07:34:58.390Z,2.45
2023-03-06T07:37:33.001Z,3.10
2023-03-06T07:40:00.056Z,4.18
2023-03-06T07:42:29.130Z,3.50
2023-03-06T07:45:01.116Z,2.65
2023-03-06T07:47:27.922Z,6.18
2023-03-06T07:49:56.740Z,2.72
2023-03-06T07:52:24.243Z,5.35
2023-03-06T07:54:51.079Z,3.05
2023-03-06T07:57:17.835Z,2.92
2023-03-06T07:59:44.650Z,1.92
2023-03-06T08:02:12.285Z,2.58
2023-03-06T08:04:39.061Z,2.72
2023-03-06T08:07:05.846Z,4.65
2023-03-06T08:09:34.814Z,3.67
2023-03-06T08:12:02.222Z,1.55
2023-03-06T08:14:29.254Z,2.03
2023-03-06T08:16:56.327Z,2.40
2023-03-06T08:19:23.219Z,2.25
2023-03-06T08:21:50.010Z,2.90
2023-03-06T08:24:18.463Z,2.00
2023-03-06T08:26:45.893Z,2.03
2023-03-06T08:29:13.554Z,4.93
2023-03-06T08:31:44.020Z,1.35
2023-03-06T08:34:15.952Z,1.60
2023-03-06T08:36:42.839Z,4.55
2023-03-06T08:39:10.087Z,1.58
2023-03-06T08:41:37.796Z,1.80
2023-03-06T08:44:05.319Z,1.92
2023-03-06T08:46:33.892Z,2.17
2023-03-06T08:49:01.181Z,3.80
2023-03-06T08:51:29.017Z,1.02
2023-03-06T08:53:57.866Z,2.17
2023-03-06T08:56:32.649Z,2.85
2023-03-06T08:59:02.106Z,2.13
2023-03-06T09:01:33.204Z,1.05
2023-03-06T09:04:04.319Z,2.55
2023-03-06T09:06:35.707Z,1.90
2023-03-06T09:09:03.751Z,1.83
2023-03-06T09:11:31.450Z,1.20
2023-03-06T09:13:59.315Z,1.10
2023-03-06T09:16:26.808Z,1.90
2023-03-06T09:18:54.235Z,0.90
2023-03-06T09:21:23.081Z,1.42
2023-03-06T09:23:50.432Z,2.55
2023-03-06T09:26:18.531Z,1.52
2023-03-06T09:28:45.748Z,1.67
2023-03-06T09:31:18.043Z,2.30
2023-03-06T09:33:45.703Z,1.00
2023-03-06T09:36:22.889Z,2.13
2023-03-06T09:38:50.731Z,2.90
2023-03-06T09:41:34.092Z,0.75
2023-03-06T09:44:08.670Z,1.65
2023-03-06T09:47:02.180Z,6.05
2023-03-06T09:50:13.608Z,2.40
2023-03-06T09:53:11.773Z,0.98
2023-03-06T09:55:41.178Z,0.80
2023-03-06T09:58:14.438Z,1.52
2023-03-06T10:01:02.667Z,1.45
2023-03-06T10:03:57.832Z,1.90
2023-03-06T10:06:33.041Z,3.45
2023-03-06T10:09:14.992Z,0.50
2023-03-06T10:11:51.477Z,2.08
2023-03-06T10:14:47.698Z,2.03
2023-03-06T10:17:23.550Z,0.43
2023-03-06T10:19:51.161Z,1.20
2023-03-06T10:22:38.248Z,1.55
2023-03-06T10:25:30.116Z,1.55
2023-03-06T10:28:34.468Z,0.43
2023-03-06T10:31:41.020Z,3.10
2023-03-06T10:34:24.124Z,0.57
2023-03-06T10:36:51.303Z,2.50
2023-03-06T10:39:22.159Z,2.20
2023-03-06T10:41:50.091Z,1.00
2023-03-06T10:44:20.326Z,0.40
2023-03-06T10:46:51.670Z,2.05
2023-03-06T10:49:36.009Z,1.20
2023-03-06T10:52:14.803Z,0.88
2023-03-06T10:54:44.171Z,0.75
2023-03-06T10:57:31.803Z,2.95
2023-03-06T11:00:04.868Z,1.02
2023-03-06T11:02:40.990Z,1.00
2023-03-06T11:05:20.794Z,1.73
2023-03-06T11:07:59.100Z,1.33
2023-03-06T11:10:27.247Z,2.63
2023-03-06T11:13:04.607Z,0.98
2023-03-06T11:15:32.037Z,1.35
2023-03-06T11:18:28.504Z,1.20
2023-03-06T11:20:56.801Z,1.45
2023-03-06T11:23:36.831Z,2.33
2023-03-06T11:26:29.773Z,2.35
2023-03-06T11:29:49.301Z,2.03
2023-03-06T11:32:23.678Z,1.40
2023-03-06T11:35:02.535Z,4.38
2023-03-06T11:37:32.549Z,3.63
2023-03-06T11:40:17.517Z,2.63
2023-03-06T11:43:06.300Z,2.95
2023-03-06T11:45:38.171Z,2.25
2023-03-06T11:48:13.611Z,2.13
2023-03-06T11:50:52.480Z,4.38
2023-03-06T11:53:32.139Z,3.67
2023-03-06T11:56:45.684Z,3.08
2023-03-06T11:59:30.520Z,4.43
2023-03-06T12:02:31.092Z,3.70
2023-03-06T12:05:35.967Z,3.42
2023-03-06T12:08:55.034Z,3.50
2023-03-06T12:11:57.493Z,2.60
2023-03-06T12:15:16.265Z,3.47
2023-03-06T12:18:13.348Z,2.35
2023-03-06T12:21:15.360Z,2.00
2023-03-06T12:24:23.183Z,2.30
2023-03-06T12:27:10.821Z,3.05
2023-03-06T12:29:40.522Z,3.22
2023-03-06T12:32:53.901Z,4.38
2023-03-06T12:36:01.144Z,4.18
2023-03-06T12:38:39.723Z,3.95
2023-03-06T12:41:43.460Z,4.53
2023-03-06T12:44:55.792Z,6.65
2023-03-06T12:47:30.704Z,8.02
2023-03-06T12:50:13.415Z,6.70
2023-03-06T12:52:41.907Z,8.65
2023-03-06T12:55:20.372Z,6.15
2023-03-06T12:57:49.467Z,6.18
2023-03-06T13:00:34.238Z,6.80
2023-03-06T13:03:22.230Z,11.40
2023-03-06T13:06:24.489Z,6.75
2023-03-06T13:09:37.125Z,7.60
2023-03-06T13:12:19.442Z,6.93
2023-03-06T13:14:54.208Z,9.38
2023-03-06T13:17:24.273Z,9.02
2023-03-06T13:20:16.190Z,8.43
2023-03-06T13:22:46.162Z,7.20
2023-03-06T13:25:19.152Z,9.80
2023-03-06T13:27:52.124Z,10.13
2023-03-06T13:30:45.796Z,9.30
2023-03-06T13:33:37.033Z,9.93
2023-03-06T13:36:39.388Z,9.68
2023-03-06T13:39:10.012Z,10.30
2023-03-06T13:41:54.828Z,12.95
2023-03-06T13:44:24.676Z,11.02
2023-03-06T13:47:06.186Z,10.35
2023-03-06T13:49:34.997Z,11.30
2023-03-06T13:52:43.237Z,11.63
2023-03-06T13:55:37.962Z,10.35
2023-03-06T13:58:36.491Z,8.40
2023-03-06T14:01:22.908Z,10.32
2023-03-06T14:04:10.743Z,8.88
2023-03-06T14:06:38.328Z,11.27
2023-03-06T14:09:15.774Z,6.35
2023-03-06T14:11:54.929Z,8.80
2023-03-06T14:14:44.651Z,7.95
2023-03-06T14:17:25.513Z,7.43
2023-03-06T14:19:52.437Z,6.45
2023-03-06T14:22:23.957Z,7.20
2023-03-06T14:25:15.038Z,7.50
2023-03-06T14:27:52.590Z,6.90
2023-03-06T14:30:25.236Z,10.32
2023-03-06T14:32:55.063Z,8.90
2023-03-06T14:35:29.568Z,9.75
2023-03-06T14:38:04.058Z,7.07
2023-03-06T14:40:42.581Z,6.20
2023-03-06T14:43:29.297Z,6.80
2023-03-06T14:46:06.435Z,7.90
2023-03-06T14:48:45.899Z,6.30
2023-03-06T14:51:21.138Z,5.97
2023-03-06T14:53:53.783Z,8.23
2023-03-06T14:56:25.486Z,7.05
2023-03-06T14:58:57.726Z,7.40
2023-03-06T15:01:35.707Z,7.72
2023-03-06T15:04:22.401Z,5.72
2023-03-06T15:06:49.944Z,7.35
2023-03-06T15:09:30.160Z,7.68
2023-03-06T15:12:02.438Z,7.53
2023-03-06T15:14:33.976Z,10.50
2023-03-06T15:17:21.643Z,8.65
2023-03-06T15:20:00.557Z,8.10
2023-03-06T15:22:41.360Z,10.02
2023-03-06T15:25:30.754Z,8.07
2023-03-06T15:28:04.406Z,7.45
2023-03-06T15:30:33.709Z,8.48
2023-03-06T15:33:24.973Z,7.65
2023-03-06T15:36:04.417Z,12.45
2023-03-06T15:38:43.110Z,6.85
2023-03-06T15:41:34.079Z,10.75
2023-03-06T15:44:10.831Z,9.48
2023-03-06T15:46:37.858Z,9.13
2023-03-06T15:49:04.817Z,10.10
2023-03-06T15:51:32.775Z,8.05
2023-03-06T15:54:11.316Z,11.15
2023-03-06T15:56:45.961Z,11.13
2023-03-06T15:59:27.503Z,12.13
2023-03-06T16:01:54.597Z,11.52
2023-03-06T16:04:21.539Z,11.30
2023-03-06T16:06:48.762Z,11.55
2023-03-06T16:09:15.608Z,11.57
2023-03-06T16:11:44.781Z,13.65
2023-03-06T16:14:23.665Z,10.45
2023-03-06T16:16:54.098Z,9.02
2023-03-06T16:19:26.771Z,11.50
2023-03-06T16:21:57.568Z,14.20
2023-03-06T16:24:26.034Z,14.32
2023-03-06T16:26:55.018Z,15.65
2023-03-06T16:29:27.124Z,15.38
2023-03-06T16:31:57.277Z,15.18
2023-03-06T16:34:24.492Z,17.08
2023-03-06T16:36:51.598Z,18.00
2023-03-06T16:39:21.949Z,19.15
2023-03-06T16:41:52.190Z,18.50
2023-03-06T16:44:20.612Z,18.52
2023-03-06T16:46:50.019Z,18.63
2023-03-06T16:49:24.020Z,21.42
2023-03-06T16:51:52.362Z,16.35
2023-03-06T16:54:20.247Z,19.73
2023-03-06T16:56:47.200Z,19.73
2023-03-06T16:59:14.102Z,18.42
2023-03-06T17:01:45.369Z,19.42
2023-03-06T17:04:12.595Z,17.25
2023-03-06T17:06:39.896Z,19.27
2023-03-06T17:09:07.037Z,17.08
2023-03-06T17:11:38.633Z,19.13
2023-03-06T17:14:06.777Z,16.40
2023-03-06T17:16:33.771Z,16.92
2023-03-06T17:19:02.270Z,18.17
2023-03-06T17:21:30.182Z,16.20
2023-03-06T17:23:57.177Z,17.33
2023-03-06T17:26:24.185Z,17.42
2023-03-06T17:28:51.096Z,14.63
2023-03-06T17:31:22.639Z,17.35
2023-03-06T17:33:51.429Z,17.92
2023-03-06T17:36:19.222Z,16.98
2023-03-06T17:38:46.471Z,16.58
2023-03-06T17:41:13.444Z,16.30
2023-03-06T17:43:41.626Z,18.27
2023-03-06T17:46:13.331Z,21.63
2023-03-06T17:48:40.457Z,21.20
2023-03-06T17:51:08.222Z,17.17
2023-03-06T17:53:35.913Z,22.48
2023-03-06T17:56:08.919Z,20.15
2023-03-06T17:58:36.083Z,20.15
2023-03-06T18:01:14.225Z,20.73
2023-03-06T18:03:45.829Z,19.90
2023-03-06T18:06:13.538Z,23.73
2023-03-06T18:08:40.965Z,26.77
2023-03-06T18:11:09.750Z,22.48
2023-03-06T18:13:41.196Z,22.92
2023-03-06T18:16:10.256Z,22.08
2023-03-06T18:18:37.283Z,25.25
2023-03-06T18:21:11.603Z,24.63
2023-03-06T18:23:40.465Z,24.45
2023-03-06T18:26:17.186Z,24.73
2023-03-06T18:28:47.706Z,27.42
2023-03-06T18:31:42.252Z,24.25
2023-03-06T18:34:13.788Z,23.80
2023-03-06T18:36:46.930Z,25.35
2023-03-06T18:39:15.818Z,25.10
2023-03-06T18:41:42.938Z,23.45
2023-03-06T18:44:15.302Z,24.20
2023-03-06T18:46:42.144Z,23.77
2023-03-06T18:49:10.254Z,24.42
2023-03-06T18:51:37.293Z,25.55
2023-03-06T18:54:05.977Z,24.73
2023-03-06T18:56:33.606Z,27.05
2023-03-06T18:59:06.443Z,25.55
2023-03-06T19:01:34.068Z,26.38
2023-03-06T19:04:03.741Z,27.38
2023-03-06T19:06:31.330Z,26.15
2023-03-06T19:08:58.743Z,24.67
2023-03-06T19:11:26.779Z,27.38
2023-03-06T19:13:54.498Z,27.63
2023-03-06T19:16:31.287Z,28.08
2023-03-06T19:18:59.334Z,29.58
2023-03-06T19:21:28.220Z,30.08
2023-03-06T19:23:56.322Z,27.67
2023-03-06T19:26:23.470Z,27.52
2023-03-06T19:28:52.269Z,31.67
2023-03-06T19:31:24.876Z,30.20
2023-03-06T19:33:53.626Z,29.80
2023-03-06T19:36:27.592Z,26.98
2023-03-06T19:39:01.410Z,27.60
2023-03-06T19:41:28.897Z,30.50
2023-03-06T19:44:03.101Z,34.38
2023-03-06T19:46:31.585Z,31.48
2023-03-06T19:49:11.498Z,27.85
2023-03-06T19:51:38.500Z,32.80
2023-03-06T19:54:05.803Z,31.40
2023-03-06T19:56:33.564Z,30.83
2023-03-06T19:59:00.581Z,28.17
2023-03-06T20:01:28.497Z,28.58
2023-03-06T20:03:59.643Z,34.75
2023-03-06T20:06:33.522Z,29.98
2023-03-06T20:09:08.307Z,30.20
2023-03-06T20:11:35.519Z,32.72
2023-03-06T20:14:05.050Z,31.42
2023-03-06T20:16:33.355Z,26.75
2023-03-06T20:19:01.730Z,29.83
2023-03-06T20:21:32.032Z,28.65
2023-03-06T20:23:59.645Z,28.17
2023-03-06T20:26:29.234Z,28.45
2023-03-06T20:28:57.890Z,28.13
2023-03-06T20:31:28.027Z,27.42
2023-03-06T20:33:58.016Z,27.40
2023-03-06T20:36:29.409Z,30.48
2023-03-06T20:39:00.230Z,28.23
2023-03-06T20:41:29.728Z,27.23
2023-03-06T20:44:01.001Z,27.00
2023-03-06T20:46:28.070Z,26.65
2023-03-06T20:48:56.165Z,24.55
2023-03-06T20:51:28.551Z,25.67
2023-03-06T20:53:56.327Z,24.20
2023-03-06T20:56:27.025Z,20.70
2023-03-06T20:58:54.137Z,23.67
2023-03-06T21:01:27.658Z,23.42
2023-03-06T21:03:56.844Z,20.23
2023-03-06T21:06:25.632Z,21.58
2023-03-06T21:08:52.538Z,19.27
2023-03-06T21:11:19.670Z,21.38
2023-03-06T21:13:46.576Z,22.05
2023-03-06T21:16:20.449Z,23.23
2023-03-06T21:18:48.016Z,23.73
2023-03-06T21:21:21.553Z,23.40
2023-03-06T21:23:49.169Z,24.08
2023-03-06T21:26:22.790Z,22.45
2023-03-06T21:28:50.605Z,22.23
2023-03-06T21:31:20.718Z,20.75
2023-03-06T21:33:49.644Z,17.35
2023-03-06T21:36:18.643Z,20.35
2023-03-06T21:38:47.775Z,18.95
2023-03-06T21:41:19.275Z,17.55
2023-03-06T21:43:46.947Z,17.35
2023-03-06T21:46:13.952Z,14.93
2023-03-06T21:48:41.159Z,15.38
2023-03-06T21:51:12.785Z,12.20
2023-03-06T21:53:43.269Z,12.73
2023-03-06T21:56:12.509Z,10.85
2023-03-06T21:58:39.621Z,10.18
2023-03-06T22:01:13.017Z,8.85
2023-03-06T22:03:40.395Z,7.65
2023-03-06T22:06:13.533Z,6.75
2023-03-06T22:08:41.667Z,6.95
2023-03-06T22:11:14.779Z,8.30
2023-03-06T22:13:42.333Z,7.57
2023-03-06T22:16:09.802Z,7.53
2023-03-06T22:18:37.726Z,6.70
2023-03-06T22:21:12.913Z,6.50
2023-03-06T22:23:43.218Z,5.82
2023-03-06T22:26:13.652Z,6.57
2023-03-06T22:28:41.974Z,6.43
2023-03-06T22:31:13.753Z,5.72
2023-03-06T22:33:40.955Z,5.35
2023-03-06T22:36:12.909Z,6.28
2023-03-06T22:38:43.175Z,5.32
2023-03-06T22:41:11.694Z,5.10
2023-03-06T22:43:38.978Z,5.03
2023-03-06T22:46:13.664Z,6.90
2023-03-06T22:48:41.098Z,7.03
2023-03-06T22:51:18.286Z,4.22
2023-03-06T22:53:46.756Z,6.43
2023-03-06T22:56:18.956Z,8.27
2023-03-06T22:58:46.761Z,7.25
2023-03-06T23:01:20.512Z,5.65
2023-03-06T23:03:50.338Z,5.53
2023-03-06T23:06:24.940Z,6.60
2023-03-06T23:09:29.375Z,5.03
2023-03-06T23:12:14.986Z,4.30
2023-03-06T23:15:00.388Z,5.97
2023-03-06T23:17:46.143Z,6.53
2023-03-06T23:20:32.026Z,8.40
2023-03-06T23:23:17.500Z,5.35
2023-03-06T23:25:44.499Z,7.53
2023-03-06T23:28:12.468Z,7.40
2023-03-06T23:30:40.800Z,6.82
2023-03-06T23:33:08.529Z,11.63
2023-03-06T23:35:37.721Z,9.00
2023-03-06T23:38:04.972Z,12.05
2023-03-06T23:40:34.437Z,7.97
2023-03-06T23:43:01.339Z,11.88
2023-03-06T23:45:28.287Z,12.27
2023-03-06T23:47:55.668Z,9.32
2023-03-06T23:50:24.176Z,9.88
2023-03-06T23:52:55.448Z,10.88
2023-03-06T23:55:22.594Z,9.30
2023-03-06T23:57:49.384Z,9.32
